createdAt,value
2019-01-19T00:01:05.539Z,1.10
2019-01-19T00:02:57.557Z,1.10
2019-01-19T00:05:00.862Z,1.10
2019-01-19T00:07:07.229Z,1.00
2019-01-19T00:08:57.469Z,1.00
2019-01-19T00:11:13.403Z,1.00
2019-01-19T00:13:39.801Z,1.00
2019-01-19T00:15:29.934Z,1.00
2019-01-19T00:17:43.886Z,1.00
2019-01-19T00:20:00.772Z,0.90
2019-01-19T00:22:33.173Z,0.90
2019-01-19T00:24:39.904Z,1.00
2019-01-19T00:26:49.579Z,1.00
2019-01-19T00:28:42.520Z,1.00
2019-01-19T00:30:35.657Z,0.90
2019-01-19T00:32:22.269Z,0.90
2019-01-19T00:34:46.161Z,0.90
2019-01-19T00:36:42.695Z,0.90
2019-01-19T00:38:48.470Z,0.90
2019-01-19T00:41:02.549Z,0.90
2019-01-19T00:43:05.037Z,0.90
2019-01-19T00:45:31.078Z,0.90
2019-01-19T00:47:10.777Z,0.90
2019-01-19T00:49:27.978Z,0.90
2019-01-19T00:51:51.286Z,0.90
2019-01-19T00:53:30.218Z,0.90
2019-01-19T00:55:43.605Z,0.80
2019-01-19T00:57:50.176Z,0.80
2019-01-19T00:59:29.381Z,0.80
2019-01-19T01:01:22.115Z,0.80
2019-01-19T01:03:11.770Z,0.80
2019-01-19T01:04:57.283Z,0.70
2019-01-19T01:07:05.501Z,0.70
2019-01-19T01:09:03.774Z,0.70
2019-01-19T01:11:21.094Z,0.70
2019-01-19T01:13:33.835Z,0.70
2019-01-19T01:15:23.266Z,0.70
2019-01-19T01:17:10.275Z,0.70
2019-01-19T01:19:18.801Z,0.70
2019-01-19T01:21:31.592Z,0.60
2019-01-19T01:23:24.201Z,0.60
2019-01-19T01:25:10.588Z,0.60
2019-01-19T01:27:07.305Z,0.60
2019-01-19T01:28:59.047Z,0.60
2019-01-19T01:30:41.923Z,0.60
2019-01-19T01:32:38.522Z,0.60
2019-01-19T01:35:01.883Z,0.50
2019-01-19T01:36:59.472Z,0.50
2019-01-19T01:39:01.032Z,0.50
2019-01-19T01:41:24.589Z,0.50
2019-01-19T01:43:30.093Z,0.50
2019-01-19T01:45:21.373Z,0.40
2019-01-19T01:47:49.994Z,0.40
2019-01-19T01:49:46.938Z,0.40
2019-01-19T01:51:31.371Z,0.40
2019-01-19T01:53:29.591Z,0.40
2019-01-19T01:55:27.090Z,0.40
2019-01-19T01:57:05.895Z,0.40
2019-01-19T01:59:12.856Z,0.40
2019-01-19T02:01:37.931Z,0.40
2019-01-19T02:03:46.877Z,0.40
2019-01-19T02:06:02.609Z,0.40
2019-01-19T02:08:17.897Z,0.40
2019-01-19T02:10:44.451Z,0.30
2019-01-19T02:12:56.881Z,0.40
2019-01-19T02:14:53.545Z,0.30
2019-01-19T02:17:07.552Z,0.30
2019-01-19T02:19:08.320Z,0.30
2019-01-19T02:21:34.247Z,0.30
2019-01-19T02:23:59.787Z,0.30
2019-01-19T02:26:31.086Z,0.30
2019-01-19T02:28:42.041Z,0.20
2019-01-19T02:30:56.895Z,0.20
2019-01-19T02:33:22.144Z,0.20
2019-01-19T02:35:25.490Z,0.20
2019-01-19T02:37:36.154Z,0.20
2019-01-19T02:40:11.636Z,0.20
2019-01-19T02:42:25.476Z,0.20
2019-01-19T02:44:35.150Z,0.30
2019-01-19T02:46:45.926Z,0.20
2019-01-19T02:48:48.660Z,0.20
2019-01-19T02:50:37.959Z,0.20
2019-01-19T02:53:04.287Z,0.30
2019-01-19T02:55:09.347Z,0.30
2019-01-19T02:57:35.795Z,0.40
2019-01-19T02:59:39.778Z,0.40
2019-01-19T03:01:55.709Z,0.30
2019-01-19T03:03:41.530Z,0.30
2019-01-19T03:05:23.637Z,0.40
2019-01-19T03:07:36.660Z,0.30
2019-01-19T03:09:47.911Z,0.30
2019-01-19T03:11:44.096Z,0.20
2019-01-19T03:13:49.929Z,0.30
2019-01-19T03:16:07.189Z,0.20
2019-01-19T03:18:12.135Z,0.20
2019-01-19T03:20:21.009Z,0.20
2019-01-19T03:22:07.693Z,0.10
2019-01-19T03:23:55.047Z,0.10
2019-01-19T03:26:04.800Z,0.00
2019-01-19T03:28:15.201Z,0.00
2019-01-19T03:30:24.040Z,0.00
2019-01-19T03:32:19.079Z,0.00
2019-01-19T03:34:20.478Z,0.00
2019-01-19T03:36:19.913Z,0.00
2019-01-19T03:38:33.027Z,0.00
2019-01-19T03:40:50.231Z,0.00
2019-01-19T03:43:04.269Z,0.00
2019-01-19T03:45:21.382Z,0.10
2019-01-19T03:47:53.726Z,0.00
2019-01-19T03:50:02.583Z,0.10
2019-01-19T03:51:43.997Z,0.10
2019-01-19T03:53:39.104Z,0.00
2019-01-19T03:55:38.615Z,0.00
2019-01-19T03:58:02.058Z,0.00
2019-01-19T04:00:13.201Z,0.00
2019-01-19T04:02:19.272Z,0.00
2019-01-19T04:04:06.389Z,0.10
2019-01-19T04:06:44.840Z,0.00
2019-01-19T04:08:40.717Z,0.10
2019-01-19T04:10:50.721Z,0.10
2019-01-19T04:12:43.151Z,0.00
2019-01-19T04:14:53.295Z,0.00
2019-01-19T04:16:49.385Z,0.00
2019-01-19T04:18:30.325Z,0.00
2019-01-19T04:20:34.353Z,-0.10
2019-01-19T04:22:32.692Z,-0.10
2019-01-19T04:24:13.264Z,-0.10
2019-01-19T04:26:16.397Z,-0.10
2019-01-19T04:27:48.637Z,-0.10
2019-01-19T04:29:20.875Z,-0.10
2019-01-19T04:30:53.011Z,-0.20
2019-01-19T04:32:25.286Z,-0.20
2019-01-19T04:33:57.877Z,-0.10
2019-01-19T04:35:30.126Z,-0.10
2019-01-19T04:37:02.413Z,-0.10
2019-01-19T04:38:36.503Z,-0.20
2019-01-19T04:40:10.349Z,-0.20
2019-01-19T04:41:42.597Z,-0.20
2019-01-19T04:43:14.709Z,-0.20
2019-01-19T04:44:46.929Z,-0.20
2019-01-19T04:46:19.072Z,-0.20
2019-01-19T04:47:51.358Z,-0.20
2019-01-19T04:49:23.619Z,-0.20
2019-01-19T04:50:55.842Z,-0.20
2019-01-19T04:52:28.124Z,-0.20
2019-01-19T04:54:00.409Z,-0.20
2019-01-19T04:55:32.675Z,-0.20
2019-01-19T04:57:04.752Z,-0.20
2019-01-19T04:58:36.898Z,-0.20
2019-01-19T05:00:14.681Z,-0.20
2019-01-19T05:01:46.910Z,-0.10
2019-01-19T05:03:19.179Z,-0.20
2019-01-19T05:04:51.328Z,-0.20
2019-01-19T05:06:30.226Z,-0.20
2019-01-19T05:07:57.586Z,-0.30
2019-01-19T05:09:29.815Z,-0.30
2019-01-19T05:11:02.117Z,-0.20
2019-01-19T05:12:34.236Z,-0.30
2019-01-19T05:14:06.447Z,-0.20
2019-01-19T05:15:38.558Z,-0.30
2019-01-19T05:17:10.693Z,-0.20
2019-01-19T05:18:42.961Z,-0.20
2019-01-19T05:20:24.310Z,-0.20
2019-01-19T05:21:56.577Z,-0.20
2019-01-19T05:23:28.925Z,-0.20
2019-01-19T05:25:01.194Z,-0.30
2019-01-19T05:26:33.553Z,-0.30
2019-01-19T05:28:05.827Z,-0.30
2019-01-19T05:29:38.100Z,-0.30
2019-01-19T05:31:10.323Z,-0.30
2019-01-19T05:32:42.729Z,-0.20
2019-01-19T05:34:14.976Z,-0.20
2019-01-19T05:35:47.237Z,-0.20
2019-01-19T05:37:19.344Z,-0.20
2019-01-19T05:38:51.509Z,-0.20
2019-01-19T05:40:23.759Z,-0.20
2019-01-19T05:41:55.886Z,-0.20
2019-01-19T05:43:27.998Z,-0.20
2019-01-19T05:45:00.244Z,-0.20
2019-01-19T05:46:32.549Z,-0.20
2019-01-19T05:48:04.707Z,-0.20
2019-01-19T05:49:37.011Z,-0.30
2019-01-19T05:51:09.260Z,-0.30
2019-01-19T05:52:41.360Z,-0.30
2019-01-19T05:54:13.577Z,-0.30
2019-01-19T05:55:45.730Z,-0.30
2019-01-19T05:57:18.109Z,-0.30
2019-01-19T05:58:50.257Z,-0.30
2019-01-19T06:00:29.997Z,-0.40
2019-01-19T06:02:02.268Z,-0.30
2019-01-19T06:03:34.632Z,-0.40
2019-01-19T06:05:07.157Z,-0.40
2019-01-19T06:06:46.573Z,-0.40
2019-01-19T06:08:13.502Z,-0.40
2019-01-19T06:09:45.607Z,-0.40
2019-01-19T06:11:17.839Z,-0.40
2019-01-19T06:12:50.069Z,-0.40
2019-01-19T06:14:22.237Z,-0.40
2019-01-19T06:15:54.381Z,-0.50
2019-01-19T06:17:27.012Z,-0.40
2019-01-19T06:18:59.382Z,-0.50
2019-01-19T06:20:31.459Z,-0.50
2019-01-19T06:22:04.138Z,-0.50
2019-01-19T06:23:36.417Z,-0.50
2019-01-19T06:25:09.168Z,-0.50
2019-01-19T06:26:41.313Z,-0.50
2019-01-19T06:28:13.467Z,-0.50
2019-01-19T06:29:45.577Z,-0.40
2019-01-19T06:31:17.973Z,-0.50
2019-01-19T06:32:50.440Z,-0.40
2019-01-19T06:34:22.660Z,-0.50
2019-01-19T06:35:54.928Z,-0.50
2019-01-19T06:37:27.068Z,-0.50
2019-01-19T06:38:59.292Z,-0.50
2019-01-19T06:40:31.533Z,-0.60
2019-01-19T06:42:03.787Z,-0.60
2019-01-19T06:43:35.873Z,-0.60
2019-01-19T06:45:13.612Z,-0.60
2019-01-19T06:46:45.889Z,-0.60
2019-01-19T06:48:18.061Z,-0.70
2019-01-19T06:49:50.166Z,-0.60
2019-01-19T06:51:22.410Z,-0.60
2019-01-19T06:52:54.553Z,-0.60
2019-01-19T06:54:27.402Z,-0.60
2019-01-19T06:55:59.488Z,-0.60
2019-01-19T06:57:31.788Z,-0.60
2019-01-19T06:59:04.045Z,-0.60
2019-01-19T07:00:36.307Z,-0.60
2019-01-19T07:02:08.429Z,-0.60
2019-01-19T07:03:40.659Z,-0.60
2019-01-19T07:05:13.106Z,-0.60
2019-01-19T07:06:45.342Z,-0.60
2019-01-19T07:08:18.435Z,-0.60
2019-01-19T07:09:50.682Z,-0.60
2019-01-19T07:11:22.967Z,-0.60
2019-01-19T07:12:55.159Z,-0.60
2019-01-19T07:14:27.297Z,-0.60
2019-01-19T07:15:59.393Z,-0.70
2019-01-19T07:17:31.693Z,-0.70
2019-01-19T07:19:03.955Z,-0.70
2019-01-19T07:20:36.173Z,-0.70
2019-01-19T07:22:08.456Z,-0.70
2019-01-19T07:23:40.688Z,-0.70
2019-01-19T07:25:13.102Z,-0.70
2019-01-19T07:26:45.241Z,-0.70
2019-01-19T07:28:17.418Z,-0.70
2019-01-19T07:29:49.516Z,-0.70
2019-01-19T07:31:21.764Z,-0.70
2019-01-19T07:32:53.967Z,-0.70
2019-01-19T07:34:26.108Z,-0.80
2019-01-19T07:35:58.393Z,-0.80
2019-01-19T07:37:30.508Z,-0.80
2019-01-19T07:39:05.261Z,-0.80
2019-01-19T07:40:37.493Z,-0.80
2019-01-19T07:42:09.763Z,-0.80
2019-01-19T07:43:42.109Z,-0.80
2019-01-19T07:45:14.840Z,-0.80
2019-01-19T07:46:47.417Z,-0.80
2019-01-19T07:48:19.660Z,-0.80
2019-01-19T07:49:51.767Z,-0.80
2019-01-19T07:51:23.924Z,-0.80
2019-01-19T07:52:56.031Z,-0.80
2019-01-19T07:54:28.149Z,-0.70
2019-01-19T07:56:00.415Z,-0.80
2019-01-19T07:57:32.497Z,-0.80
2019-01-19T07:59:04.745Z,-0.70
2019-01-19T08:00:36.898Z,-0.70
2019-01-19T08:02:09.145Z,-0.70
2019-01-19T08:03:41.370Z,-0.70
2019-01-19T08:05:13.689Z,-0.70
2019-01-19T08:06:45.914Z,-0.70
2019-01-19T08:08:17.987Z,-0.70
2019-01-19T08:09:50.206Z,-0.70
2019-01-19T08:11:22.342Z,-0.70
2019-01-19T08:12:54.442Z,-0.70
2019-01-19T08:14:26.739Z,-0.70
2019-01-19T08:15:58.988Z,-0.60
2019-01-19T08:17:31.301Z,-0.60
2019-01-19T08:19:03.541Z,-0.60
2019-01-19T08:20:35.831Z,-0.60
2019-01-19T08:22:08.102Z,-0.50
2019-01-19T08:23:40.419Z,-0.50
2019-01-19T08:25:12.663Z,-0.50
2019-01-19T08:26:44.891Z,-0.50
2019-01-19T08:28:17.267Z,-0.50
2019-01-19T08:29:49.596Z,-0.50
2019-01-19T08:31:21.851Z,-0.50
2019-01-19T08:32:54.271Z,-0.50
2019-01-19T08:34:26.611Z,-0.60
2019-01-19T08:35:58.975Z,-0.70
2019-01-19T08:37:31.097Z,-0.80
2019-01-19T08:39:06.205Z,-0.90
2019-01-19T08:40:38.451Z,-0.90
2019-01-19T08:42:10.536Z,-1.00
2019-01-19T08:43:48.817Z,-1.00
2019-01-19T08:45:21.158Z,-1.10
2019-01-19T08:46:53.464Z,-1.10
2019-01-19T08:48:25.806Z,-1.10
2019-01-19T08:49:57.994Z,-1.10
2019-01-19T08:51:30.254Z,-1.10
2019-01-19T08:53:03.576Z,-1.00
2019-01-19T08:54:35.866Z,-1.00
2019-01-19T08:56:08.105Z,-1.00
2019-01-19T08:57:40.334Z,-1.10
2019-01-19T08:59:12.575Z,-1.10
2019-01-19T09:00:44.850Z,-1.00
2019-01-19T09:02:17.131Z,-1.00
2019-01-19T09:03:49.360Z,-1.00
2019-01-19T09:05:21.593Z,-1.00
2019-01-19T09:06:53.912Z,-1.00
2019-01-19T09:08:26.305Z,-1.00
2019-01-19T09:09:58.610Z,-0.90
2019-01-19T09:11:30.864Z,-0.90
2019-01-19T09:13:03.205Z,-0.90
2019-01-19T09:14:35.381Z,-0.90
2019-01-19T09:16:12.836Z,-0.90
2019-01-19T09:17:45.064Z,-0.90
2019-01-19T09:19:17.373Z,-0.80
2019-01-19T09:20:49.620Z,-0.80
2019-01-19T09:22:21.809Z,-0.80
2019-01-19T09:24:01.963Z,-0.80
2019-01-19T09:25:34.210Z,-0.90
2019-01-19T09:27:06.530Z,-0.80
2019-01-19T09:28:38.806Z,-0.80
2019-01-19T09:30:14.360Z,-0.80
2019-01-19T09:31:46.610Z,-0.80
2019-01-19T09:33:19.036Z,-0.80
2019-01-19T09:34:51.275Z,-0.70
2019-01-19T09:36:23.474Z,-0.70
2019-01-19T09:37:55.732Z,-0.70
2019-01-19T09:39:27.883Z,-0.70
2019-01-19T09:41:00.195Z,-0.60
2019-01-19T09:42:32.426Z,-0.60
2019-01-19T09:44:04.699Z,-0.60
2019-01-19T09:45:39.766Z,-0.60
2019-01-19T09:47:11.999Z,-0.60
2019-01-19T09:48:44.301Z,-0.60
2019-01-19T09:50:16.915Z,-0.60
2019-01-19T09:51:49.226Z,-0.50
2019-01-19T09:53:21.434Z,-0.50
2019-01-19T09:54:53.713Z,-0.50
2019-01-19T09:56:25.999Z,-0.50
2019-01-19T09:57:58.237Z,-0.50
2019-01-19T09:59:30.418Z,-0.40
2019-01-19T10:01:02.847Z,-0.40
2019-01-19T10:02:35.209Z,-0.40
2019-01-19T10:04:07.477Z,-0.40
2019-01-19T10:05:39.769Z,-0.30
2019-01-19T10:07:12.072Z,-0.40
2019-01-19T10:08:44.221Z,-0.30
2019-01-19T10:10:16.501Z,-0.30
2019-01-19T10:11:48.841Z,-0.30
2019-01-19T10:13:21.149Z,-0.20
2019-01-19T10:14:53.403Z,-0.30
2019-01-19T10:16:25.707Z,-0.20
2019-01-19T10:17:58.317Z,-0.20
2019-01-19T10:19:30.589Z,-0.30
2019-01-19T10:21:03.159Z,-0.20
2019-01-19T10:22:35.287Z,-0.20
2019-01-19T10:24:07.591Z,-0.10
2019-01-19T10:25:39.865Z,-0.10
2019-01-19T10:27:12.117Z,-0.10
2019-01-19T10:28:46.693Z,0.00
2019-01-19T10:30:21.289Z,0.00
2019-01-19T10:31:53.705Z,0.10
2019-01-19T10:33:25.953Z,0.10
2019-01-19T10:34:58.176Z,0.20
2019-01-19T10:36:30.378Z,0.30
2019-01-19T10:38:02.621Z,0.40
2019-01-19T10:39:35.036Z,0.50
2019-01-19T10:41:07.315Z,0.70
2019-01-19T10:42:39.614Z,0.80
2019-01-19T10:44:11.799Z,1.00
2019-01-19T10:45:44.048Z,1.20
2019-01-19T10:47:16.399Z,1.30
2019-01-19T10:48:48.687Z,1.50
2019-01-19T10:50:21.120Z,1.60
2019-01-19T10:51:59.368Z,1.80
2019-01-19T10:53:27.670Z,2.00
2019-01-19T10:54:59.833Z,2.10
2019-01-19T10:56:32.018Z,2.20
2019-01-19T10:58:05.151Z,2.40
2019-01-19T10:59:37.439Z,2.50
2019-01-19T11:01:09.686Z,2.50
2019-01-19T11:02:42.041Z,2.60
2019-01-19T11:04:14.398Z,2.70
2019-01-19T11:05:46.626Z,2.80
2019-01-19T11:07:18.791Z,2.80
2019-01-19T11:08:51.127Z,2.90
2019-01-19T11:10:25.147Z,3.00
2019-01-19T11:11:57.407Z,3.10
2019-01-19T11:13:29.719Z,3.20
2019-01-19T11:15:02.111Z,3.30
2019-01-19T11:16:34.506Z,3.40
2019-01-19T11:18:06.702Z,3.60
2019-01-19T11:19:38.902Z,3.70
2019-01-19T11:21:11.075Z,3.70
2019-01-19T11:22:43.431Z,3.80
2019-01-19T11:24:15.740Z,3.90
2019-01-19T11:25:48.069Z,3.90
2019-01-19T11:27:20.411Z,3.90
2019-01-19T11:28:52.702Z,4.00
2019-01-19T11:30:26.497Z,4.00
2019-01-19T11:31:58.654Z,4.20
2019-01-19T11:33:30.948Z,4.30
2019-01-19T11:35:03.667Z,4.30
2019-01-19T11:36:35.995Z,4.40
2019-01-19T11:38:11.989Z,4.50
2019-01-19T11:39:42.503Z,4.40
2019-01-19T11:41:14.866Z,4.50
2019-01-19T11:42:47.378Z,4.50
2019-01-19T11:44:19.710Z,4.60
2019-01-19T11:45:51.969Z,4.60
2019-01-19T11:47:24.052Z,4.70
2019-01-19T11:48:56.403Z,4.80
2019-01-19T11:50:29.081Z,4.80
2019-01-19T11:52:01.453Z,4.90
2019-01-19T11:53:33.779Z,5.00
2019-01-19T11:55:08.022Z,5.10
2019-01-19T11:56:40.297Z,5.00
2019-01-19T11:58:12.596Z,5.10
2019-01-19T11:59:44.865Z,5.10
2019-01-19T12:01:17.142Z,5.10
2019-01-19T12:02:49.463Z,5.10
2019-01-19T12:04:21.705Z,5.20
2019-01-19T12:05:54.005Z,5.20
2019-01-19T12:07:26.425Z,5.20
2019-01-19T12:08:58.679Z,5.20
2019-01-19T12:10:30.887Z,5.30
2019-01-19T12:12:03.230Z,5.30
2019-01-19T12:13:35.461Z,5.30
2019-01-19T12:15:09.265Z,5.20
2019-01-19T12:16:41.761Z,5.20
2019-01-19T12:18:14.029Z,5.20
2019-01-19T12:19:46.287Z,5.20
2019-01-19T12:21:18.378Z,5.20
2019-01-19T12:22:50.733Z,5.20
2019-01-19T12:24:23.000Z,5.20
2019-01-19T12:25:55.265Z,5.30
2019-01-19T12:27:30.420Z,5.20
2019-01-19T12:29:02.686Z,5.30
2019-01-19T12:30:34.957Z,5.30
2019-01-19T12:32:07.203Z,5.40
2019-01-19T12:33:39.475Z,5.50
2019-01-19T12:35:12.009Z,5.40
2019-01-19T12:36:44.256Z,5.40
2019-01-19T12:38:16.516Z,5.50
2019-01-19T12:39:48.879Z,5.60
2019-01-19T12:41:21.168Z,5.60
2019-01-19T12:42:56.129Z,5.60
2019-01-19T12:44:28.437Z,5.60
2019-01-19T12:46:03.115Z,5.70
2019-01-19T12:47:35.334Z,5.70
2019-01-19T12:49:07.446Z,5.80
2019-01-19T12:50:39.594Z,5.80
2019-01-19T12:52:11.751Z,5.90
2019-01-19T12:53:44.047Z,5.90
2019-01-19T12:55:17.362Z,5.90
2019-01-19T12:56:49.867Z,6.00
2019-01-19T12:58:22.230Z,6.00
2019-01-19T12:59:54.492Z,6.00
2019-01-19T13:01:26.668Z,5.90
2019-01-19T13:02:58.980Z,5.90
2019-01-19T13:04:31.410Z,6.00
2019-01-19T13:06:19.244Z,6.00
2019-01-19T13:07:51.554Z,6.10
2019-01-19T13:09:26.620Z,6.10
2019-01-19T13:11:07.912Z,6.10
2019-01-19T13:12:47.775Z,6.00
2019-01-19T13:14:20.084Z,6.00
2019-01-19T13:16:33.877Z,5.90
2019-01-19T13:18:30.681Z,5.90
2019-01-19T13:20:30.269Z,5.90
2019-01-19T13:22:50.604Z,5.80
2019-01-19T13:24:57.744Z,5.70
2019-01-19T13:26:56.176Z,5.50
2019-01-19T13:29:01.454Z,5.30
2019-01-19T13:31:22.825Z,5.30
2019-01-19T13:33:33.501Z,5.20
2019-01-19T13:35:35.007Z,5.10
2019-01-19T13:38:13.381Z,4.90
2019-01-19T13:40:17.130Z,4.70
2019-01-19T13:42:32.085Z,4.60
2019-01-19T13:44:41.989Z,4.50
2019-01-19T13:46:53.173Z,4.40
2019-01-19T13:48:54.305Z,4.20
2019-01-19T13:50:43.974Z,4.20
2019-01-19T13:52:29.041Z,4.10
2019-01-19T13:54:36.773Z,4.00
2019-01-19T13:56:44.139Z,3.90
2019-01-19T13:58:26.351Z,3.80
2019-01-19T14:00:19.023Z,3.80
2019-01-19T14:02:35.015Z,3.70
2019-01-19T14:04:46.371Z,3.60
2019-01-19T14:06:29.212Z,3.50
2019-01-19T14:08:24.845Z,3.60
2019-01-19T14:10:35.254Z,3.50
2019-01-19T14:13:01.230Z,3.50
2019-01-19T14:15:02.465Z,3.40
2019-01-19T14:17:15.709Z,3.40
2019-01-19T14:19:37.446Z,3.30
2019-01-19T14:21:57.556Z,3.30
2019-01-19T14:24:01.897Z,3.30
2019-01-19T14:26:19.153Z,3.30
2019-01-19T14:28:23.182Z,3.20
2019-01-19T14:30:11.624Z,3.20
2019-01-19T14:32:40.490Z,3.30
2019-01-19T14:34:35.241Z,3.30
2019-01-19T14:36:51.468Z,3.30
2019-01-19T14:38:48.085Z,3.30
2019-01-19T14:40:40.297Z,3.20
2019-01-19T14:42:47.818Z,3.20
2019-01-19T14:45:17.345Z,3.20
2019-01-19T14:47:43.569Z,3.20
2019-01-19T14:49:47.722Z,3.20
2019-01-19T14:51:45.451Z,3.10
2019-01-19T14:54:23.856Z,3.10
2019-01-19T14:56:28.203Z,3.10
2019-01-19T14:58:22.719Z,3.00
2019-01-19T15:00:29.702Z,3.00
2019-01-19T15:02:38.667Z,3.00
2019-01-19T15:04:55.804Z,3.00
2019-01-19T15:07:23.169Z,3.00
2019-01-19T15:09:39.141Z,3.00
2019-01-19T15:12:17.468Z,3.00
2019-01-19T15:14:31.970Z,2.90
2019-01-19T15:16:59.884Z,2.90
2019-01-19T15:19:15.788Z,2.90
2019-01-19T15:21:38.541Z,2.80
2019-01-19T15:23:47.742Z,2.80
2019-01-19T15:25:55.432Z,2.80
2019-01-19T15:28:13.016Z,2.80
2019-01-19T15:30:22.046Z,2.70
2019-01-19T15:32:02.023Z,2.70
2019-01-19T15:34:31.729Z,2.70
2019-01-19T15:36:48.209Z,2.70
2019-01-19T15:39:03.716Z,2.70
2019-01-19T15:41:26.916Z,2.60
2019-01-19T15:43:41.714Z,2.50
2019-01-19T16:20:25.059Z,1.90
2019-01-19T16:22:09.574Z,1.80
2019-01-19T17:09:47.215Z,1.10
2019-01-19T17:12:03.235Z,1.10
2019-01-19T17:14:02.497Z,1.00
2019-01-19T17:16:19.953Z,1.00
2019-01-19T17:18:15.031Z,1.00
2019-01-19T17:20:09.808Z,1.00
2019-01-19T17:22:09.461Z,1.00
2019-01-19T17:24:38.506Z,1.00
2019-01-19T17:26:43.442Z,1.00
2019-01-19T17:29:04.390Z,1.00
2019-01-19T17:31:21.372Z,1.00
2019-01-19T17:33:29.841Z,0.90
2019-01-19T17:35:53.151Z,1.00
2019-01-19T17:37:42.338Z,0.90
2019-01-19T17:40:01.902Z,1.00
2019-01-19T17:42:07.817Z,1.00
2019-01-19T17:44:06.020Z,0.90
2019-01-19T17:46:21.618Z,0.90
2019-01-19T17:48:29.369Z,0.90
2019-01-19T17:50:27.593Z,0.90
2019-01-19T17:52:50.725Z,0.80
2019-01-19T17:54:58.643Z,0.80
2019-01-19T17:57:11.347Z,0.70
2019-01-19T17:59:09.115Z,0.70
2019-01-19T18:01:18.915Z,0.70
2019-01-19T18:03:35.583Z,0.70
2019-01-19T18:05:22.887Z,0.70
2019-01-19T18:07:17.976Z,0.60
2019-01-19T18:09:18.762Z,0.60
2019-01-19T18:11:34.702Z,0.50
2019-01-19T18:13:52.402Z,0.60
2019-01-19T18:16:05.200Z,0.50
2019-01-19T18:18:15.026Z,0.50
2019-01-19T18:20:35.399Z,0.50
2019-01-19T18:22:27.843Z,0.50
2019-01-19T18:24:39.139Z,0.40
2019-01-19T18:26:32.234Z,0.40
2019-01-19T18:28:55.619Z,0.30
2019-01-19T18:30:49.793Z,0.30
2019-01-19T18:33:05.475Z,0.30
2019-01-19T18:35:34.832Z,0.30
2019-01-19T18:37:44.823Z,0.30
2019-01-19T18:39:55.219Z,0.30
2019-01-19T18:41:53.588Z,0.30
2019-01-19T18:43:58.809Z,0.20
2019-01-19T18:46:17.333Z,0.20
2019-01-19T18:48:16.632Z,0.10
2019-01-19T18:50:17.087Z,0.20
2019-01-19T18:52:46.872Z,0.10
2019-01-19T18:55:16.506Z,0.10
2019-01-19T18:57:25.345Z,0.10
2019-01-19T18:59:35.249Z,0.10
2019-01-19T19:01:55.630Z,0.00
2019-01-19T19:03:56.051Z,-0.10
2019-01-19T19:05:55.044Z,-0.10
2019-01-19T19:07:44.929Z,-0.10
2019-01-19T19:09:44.289Z,-0.10
2019-01-19T19:11:53.640Z,-0.10
2019-01-19T19:14:21.621Z,-0.20
2019-01-19T19:16:10.074Z,-0.30
2019-01-19T19:18:35.171Z,-0.20
2019-01-19T19:20:49.232Z,-0.20
2019-01-19T19:23:18.270Z,-0.20
2019-01-19T19:25:18.969Z,-0.20
2019-01-19T19:27:39.609Z,-0.30
2019-01-19T19:29:53.585Z,-0.30
2019-01-19T19:32:04.904Z,-0.30
2019-01-19T19:34:28.063Z,-0.30
2019-01-19T19:36:37.836Z,-0.30
2019-01-19T19:38:53.617Z,-0.40
2019-01-19T19:41:19.073Z,-0.40
2019-01-19T19:43:09.331Z,-0.30
2019-01-19T19:45:18.394Z,-0.40
2019-01-19T19:47:03.459Z,-0.40
2019-01-19T19:49:22.648Z,-0.40
2019-01-19T19:51:23.990Z,-0.40
2019-01-19T19:52:56.435Z,-0.30
2019-01-19T19:54:30.483Z,-0.40
2019-01-19T19:56:01.878Z,-0.30
2019-01-19T19:57:34.154Z,-0.30
2019-01-19T19:59:06.387Z,-0.40
2019-01-19T20:00:38.801Z,-0.40
2019-01-19T20:02:10.958Z,-0.50
2019-01-19T20:03:43.241Z,-0.50
2019-01-19T20:05:15.782Z,-0.50
2019-01-19T20:06:48.054Z,-0.50
2019-01-19T20:08:20.327Z,-0.50
2019-01-19T20:09:52.690Z,-0.50
2019-01-19T20:11:24.973Z,-0.50
2019-01-19T20:12:57.261Z,-0.60
2019-01-19T20:14:29.569Z,-0.60
2019-01-19T20:16:01.891Z,-0.60
2019-01-19T20:17:33.994Z,-0.60
2019-01-19T20:19:06.269Z,-0.60
2019-01-19T20:20:38.444Z,-0.60
2019-01-19T20:22:10.729Z,-0.60
2019-01-19T20:23:43.021Z,-0.60
2019-01-19T20:25:15.363Z,-0.60
2019-01-19T20:26:47.644Z,-0.60
2019-01-19T20:28:19.867Z,-0.60
2019-01-19T20:29:52.195Z,-0.60
2019-01-19T20:31:24.457Z,-0.70
2019-01-19T20:32:56.699Z,-0.70
2019-01-19T20:56:14.262Z,-0.90
2019-01-19T20:57:46.548Z,-1.00
2019-01-19T20:59:18.816Z,-0.70
2019-01-19T21:00:51.217Z,-0.90
2019-01-19T21:02:23.698Z,-1.00
2019-01-19T21:03:56.044Z,-0.90
2019-01-19T21:05:28.532Z,-1.10
2019-01-19T21:07:01.008Z,-1.00
2019-01-19T21:08:33.360Z,-1.00
2019-01-19T21:10:06.082Z,-1.10
2019-01-19T21:11:38.553Z,-0.90
2019-01-19T21:13:10.937Z,-1.20
2019-01-19T21:16:24.395Z,-1.10
2019-01-19T21:17:56.876Z,-1.10
2019-01-19T21:19:29.226Z,-1.20
2019-01-19T21:21:01.534Z,-1.20
2019-01-19T21:22:33.845Z,-1.10
2019-01-19T21:24:06.134Z,-1.00
2019-01-19T21:25:38.505Z,-1.30
2019-01-19T21:27:10.963Z,-1.30
2019-01-19T21:28:43.420Z,-1.30
2019-01-19T21:30:16.184Z,-1.30
2019-01-19T21:31:48.526Z,-1.30
2019-01-19T21:33:21.031Z,-1.20
2019-01-19T21:34:53.417Z,-1.20
2019-01-19T21:36:25.873Z,-1.20
2019-01-19T21:37:58.173Z,-1.20
2019-01-19T21:39:30.521Z,-1.10
2019-01-19T21:41:02.934Z,-1.20
2019-01-19T21:42:35.445Z,-1.10
2019-01-19T21:44:07.792Z,-1.10
2019-01-19T21:45:40.238Z,-1.00
2019-01-19T21:47:12.718Z,-1.10
2019-01-19T21:48:48.316Z,-0.80
2019-01-19T21:50:49.646Z,-1.10
2019-01-19T22:02:26.169Z,-1.20
2019-01-19T22:04:01.202Z,-1.30
2019-01-19T22:05:33.539Z,-1.30
2019-01-19T22:07:06.565Z,-1.10
2019-01-19T22:08:39.041Z,-1.30
2019-01-19T22:10:13.854Z,-1.40
2019-01-19T22:11:51.983Z,-1.20
2019-01-19T22:13:24.381Z,-1.20
2019-01-19T22:26:47.988Z,-1.40
2019-01-19T22:28:20.526Z,-1.40
2019-01-19T22:29:52.846Z,-1.40
2019-01-19T22:31:25.259Z,-1.40
2019-01-19T22:32:58.821Z,-1.40
2019-01-19T22:34:31.296Z,-1.50
2019-01-19T22:36:03.719Z,-1.50
2019-01-19T22:37:36.151Z,-1.20
2019-01-19T22:39:08.661Z,-1.30
2019-01-19T22:40:41.007Z,-1.20
2019-01-19T22:42:13.473Z,-1.30
2019-01-19T22:43:45.851Z,-1.60
2019-01-19T22:45:18.286Z,-1.40
2019-01-19T22:46:50.750Z,-1.40
2019-01-19T22:48:23.192Z,-1.50
2019-01-19T22:49:55.554Z,-1.40
2019-01-19T22:51:27.969Z,-1.50
2019-01-19T22:53:00.400Z,-1.40
2019-01-19T22:54:32.838Z,-1.70
2019-01-19T22:56:05.220Z,-1.40
2019-01-19T22:57:37.602Z,-1.30
2019-01-19T22:59:09.962Z,-1.60
2019-01-19T23:01:22.986Z,-1.60
2019-01-19T23:02:55.399Z,-1.60
2019-01-19T23:04:27.842Z,-1.40
2019-01-19T23:06:00.322Z,-1.50
2019-01-19T23:07:32.662Z,-1.40
2019-01-19T23:09:09.906Z,-1.30
2019-01-19T23:10:42.404Z,-1.60
2019-01-19T23:12:14.845Z,-1.50
2019-01-19T23:13:47.221Z,-1.40
2019-01-19T23:15:19.633Z,-1.40
2019-01-19T23:16:51.930Z,-1.40
2019-01-19T23:18:24.409Z,-1.40
2019-01-19T23:19:56.707Z,-1.40
2019-01-19T23:21:31.917Z,-1.60
2019-01-19T23:23:04.392Z,-1.50
2019-01-19T23:24:36.826Z,-1.50
2019-01-19T23:26:09.838Z,-1.60
2019-01-19T23:27:42.320Z,-1.60
2019-01-19T23:29:14.578Z,-1.60
2019-01-19T23:30:47.107Z,-1.50
2019-01-19T23:32:19.538Z,-1.30
2019-01-19T23:33:54.604Z,-1.40
2019-01-19T23:35:27.109Z,-1.70
2019-01-19T23:36:59.443Z,-1.70
2019-01-19T23:38:31.956Z,-1.70
2019-01-19T23:40:04.717Z,-1.70
2019-01-19T23:41:37.262Z,-1.60
2019-01-19T23:43:09.622Z,-1.90
2019-01-19T23:44:42.200Z,-1.70
2019-01-19T23:46:14.533Z,-1.70
2019-01-19T23:47:47.014Z,-1.70
2019-01-19T23:49:19.522Z,-1.90
2019-01-19T23:50:52.103Z,-1.70
2019-01-19T23:52:24.525Z,-1.10
2019-01-19T23:53:57.065Z,-2.00
2019-01-19T23:55:29.466Z,-1.80
2019-01-19T23:57:02.068Z,-1.80
2019-01-19T23:58:34.553Z,-1.90
